Terminal Aerodrome Forecast
Issued by NWS Amarillo, TX

Home | Current Version | Previous Version | Text Only | Print | Product List | Glossary On
Versions: 1 2 3 4 5 6 7 8 9 10 11 12 13 14 15 16
000
FTUS44 KAMA 311353 AAA
TAFGUY
TAF AMD
KGUY 311353Z 3114/0112 09010KT P6SM VCSH BKN080
     FM312000 05008KT 6SM -TSRA OVC060CB
     FM010600 03010KT P6SM SCT030 BKN100=

USA.gov is the U.S. government's official web portal to all federal, state and local government web resources and services.